Flight Track Log - Related Links

Times and Time Zones

All times are in EDT time to prevent confusion due to time zone crossing. See the UAL363 flight status page for this flight to view local times or setup timezone preferences in your user account.

Time Position Orientation Groundspeed Altitude Reporting Facility
EDT Latitude Longitude Course Direction KTS MPH feet Rate Location/Type
Fri 11:30:56 PM 38.9333 -77.5667 270° West 228 262 3,100  Level Potomac TRACON
Fri 11:31:56 PM 38.9167 -77.6500 256° West 268 308 6,700 3,252 Climbing Potomac TRACON
Fri 11:32:00 PM 38.8822 -77.8079 260° West  Level FlightAware Approximate
Fri 11:33:00 PM 38.8707 -77.9287 293° West  Level FlightAware Approximate
Fri 11:33:07 PM 38.9250 -77.7636 275° West 267 307 10,200  Level Washington Center
Fri 11:34:00 PM 38.9030 -78.0452 288° West  Level FlightAware Approximate
Fri 11:34:05 PM 38.9356 -77.8761 277° West 303 349 13,300  Level Washington Center
Fri 11:35:00 PM 38.9324 -78.1631 288° West  Level FlightAware Approximate
Fri 11:35:05 PM 38.9436 -77.9883 275° West 317 365 16,400  Level Washington Center
Fri 11:36:00 PM 38.9500 -78.2805 270° West  Level FlightAware Approximate
Fri 11:36:06 PM 38.9517 -78.1086 275° West 331 381 16,900  Level Washington Center
Fri 11:37:07 PM 38.9617 -78.2267 276° West 331 381 19,100 2,370 Climbing Washington Center
Fri 11:38:05 PM 38.9653 -78.3442 272° West 331 381 21,600 2,370 Climbing Washington Center
Fri 11:39:06 PM 38.9689 -78.4644 272° West 331 381 23,800 1,967 Climbing Washington Center
Fri 11:40:07 PM 38.9719 -78.5900 272° West 345 397 25,600 1,736 Climbing Washington Center
Fri 11:41:07 PM 38.9769 -78.7211 273° West 355 409 27,300 2,186 Climbing Washington Center
Fri 11:42:05 PM 38.9803 -78.8361 272° West 365 420 29,900 2,390 Climbing Washington Center
Fri 11:43:05 PM 38.9833 -78.9511 272° West 354 407 32,000 1,041 Climbing Washington Center
Fri 11:44:06 PM 38.9858 -79.0767 272° West 347 399 32,000  Level Washington Center
Fri 11:45:06 PM 38.9906 -79.2050 273° West 358 412 32,000 850 Level Washington Center
Fri 11:46:06 PM 38.9928 -79.3308 271° West 358 412 33,700 1,587 Climbing Washington Center
Fri 11:47:07 PM 38.9953 -79.4536 272° West 358 412 35,200 1,400 Climbing Washington Center
Fri 11:48:06 PM 38.9975 -79.5767 271° West 358 412 36,500 1,109 Climbing Washington Center
Fri 11:49:06 PM 39.0011 -79.7158 272° West 353 406 37,400 756 Climbing Washington Center
Fri 11:50:05 PM 39.0008 -79.8414 270° West 353 406 38,000 298 Climbing Washington Center
Fri 11:51:07 PM 39.0047 -79.9672 272° West 353 406 38,000  Level Washington Center
Fri 11:52:49 PM 39.0056 -80.1867 270° West 362 417 38,000  Level Indianapolis Center
Fri 11:53:49 PM 39.0075 -80.3158 271° West 362 417 38,000  Level Indianapolis Center
Fri 11:54:50 PM 39.0106 -80.4442 272° West 361 415 38,000  Level Indianapolis Center
Fri 11:55:51 PM 39.0375 -80.5653 286° West 360 414 38,000  Level Indianapolis Center
Fri 11:56:52 PM 39.0861 -80.6778 299° West 361 415 38,000  Level Indianapolis Center
Fri 11:57:52 PM 39.1369 -80.7881 301° West 359 413 38,000  Level Indianapolis Center
Fri 11:58:53 PM 39.1867 -80.8989 300° West 360 414 38,000  Level Indianapolis Center
Fri 11:59:54 PM 39.2369 -81.0100 300° West 359 413 38,000  Level Indianapolis Center
Sat 12:00:54 AM 39.2869 -81.1233 300° West 363 418 38,000  Level Indianapolis Center
Sat 12:01:55 AM 39.3367 -81.2353 300° West 363 418 38,000  Level Indianapolis Center
Sat 12:02:56 AM 39.3869 -81.3478 300° West 362 417 38,000  Level Indianapolis Center
Sat 12:03:56 AM 39.4356 -81.4600 299° West 360 414 38,000  Level Indianapolis Center
Sat 12:04:57 AM 39.4850 -81.5700 300° West 358 412 38,000  Level Indianapolis Center
Sat 12:05:58 AM 39.5322 -81.6822 299° West 355 409 38,000  Level Indianapolis Center
Sat 12:06:58 AM 39.5817 -81.7939 300° West 356 410 38,000  Level Indianapolis Center
Sat 12:07:59 AM 39.6303 -81.9050 300° West 356 410 38,000  Level Indianapolis Center
Sat 12:08:59 AM 39.6783 -82.0156 299° West 353 406 38,000 -50 Level Indianapolis Center
Sat 12:10:00 AM 39.7306 -82.1392 299° West 356 410 37,900  Descending Indianapolis Center
Sat 12:11:01 AM 39.7792 -82.2522 299° West 355 409 38,000 50 Climbing Indianapolis Center
Sat 12:12:01 AM 39.8286 -82.3664 299° West 358 412 38,000  Level Indianapolis Center
Sat 12:13:02 AM 39.8769 -82.4806 299° West 358 412 38,000  Level Indianapolis Center
Sat 12:14:02 AM 39.9258 -82.5953 299° West 360 414 38,000  Level Indianapolis Center
Sat 12:15:03 AM 39.9742 -82.7100 299° West 359 413 38,000 -50 Level Indianapolis Center
Sat 12:16:03 AM 40.0231 -82.8247 299° West 358 412 37,900 -50 Descending Indianapolis Center
Sat 12:17:04 AM 40.0706 -82.9392 299° West 358 412 37,900 49 Level Indianapolis Center
Sat 12:18:05 AM 40.1183 -83.0533 299° West 359 413 38,000 50 Climbing Indianapolis Center
Sat 12:19:05 AM 40.1667 -83.1678 299° West 358 412 38,000 -50 Level Indianapolis Center
Sat 12:20:06 AM 40.2139 -83.2814 299° West 355 409 37,900 -50 Descending Indianapolis Center
Sat 12:21:06 AM 40.2608 -83.3953 298° West 353 406 37,900  Level Indianapolis Center
Sat 12:22:07 AM 40.3081 -83.5103 298° West 357 411 37,900  Level Indianapolis Center
Sat 12:23:07 AM 40.3553 -83.6242 299° West 355 409 37,900 50 Level Indianapolis Center
Sat 12:24:08 AM 40.4022 -83.7403 298° West 358 412 38,000 50 Climbing Indianapolis Center
Sat 12:25:08 AM 40.4486 -83.8547 298° West 357 411 38,000 -50 Level Indianapolis Center
Sat 12:26:09 AM 40.4964 -83.9706 299° West 358 412 37,900  Descending Indianapolis Center
Sat 12:27:09 AM 40.5406 -84.0881 296° West 359 413 38,000 50 Climbing Indianapolis Center
Sat 12:28:10 AM 40.5814 -84.2092 294° West 360 414 38,000  Level Indianapolis Center
Sat 12:29:10 AM 40.6203 -84.3306 293° West 358 412 38,000  Level Indianapolis Center
Sat 12:29:59 AM 40.6561 -84.4353 294° West 360 414 38,000  Level Chicago Center
Sat 12:30:59 AM 40.6950 -84.5561 293° West 360 414 38,000  Level Chicago Center
Sat 12:31:59 AM 40.7350 -84.6769 294° West 359 413 38,000  Level Chicago Center
Sat 12:33:00 AM 40.7758 -84.7986 294° West 362 417 38,000  Level Chicago Center
Sat 12:34:00 AM 40.8156 -84.9208 293° West 362 417 38,000 -50 Level Chicago Center
Sat 12:35:01 AM 40.8553 -85.0436 293° West 364 419 37,900 -545 Descending Chicago Center
Sat 12:36:01 AM 40.8947 -85.1658 293° West 362 417 36,900 -1,000 Descending Chicago Center
Sat 12:37:01 AM 40.9356 -85.2914 293° West 366 421 35,900 -992 Descending Chicago Center
Sat 12:38:02 AM 40.9753 -85.4158 293° West 368 423 34,900 -942 Descending Chicago Center
Sat 12:39:02 AM 41.0150 -85.5400 293° West 367 422 34,000 -1,000 Descending Chicago Center
Sat 12:40:02 AM 41.0556 -85.6656 293° West 369 425 32,900 -1,041 Descending Chicago Center
Sat 12:41:03 AM 41.0936 -85.7881 292° West 361 415 31,900 -1,140 Descending Chicago Center
Sat 12:42:03 AM 41.1317 -85.9086 293° West 354 407 30,600 -1,350 Descending Chicago Center
Sat 12:43:03 AM 41.1675 -86.0261 292° West 346 398 29,200 -1,537 Descending Chicago Center
Sat 12:44:04 AM 41.2044 -86.1431 293° West 343 395 27,500 -1,884 Descending Chicago Center
Sat 12:45:04 AM 41.2414 -86.2631 292° West 349 402 25,400 -2,200 Descending Chicago Center
Sat 12:46:04 AM 41.2797 -86.3844 293° West 357 411 23,100 -2,132 Descending Chicago Center
Sat 12:47:05 AM 41.3161 -86.5033 292° West 349 402 21,100 -2,033 Descending Chicago Center
Sat 12:48:05 AM 41.3517 -86.6200 292° West 342 394 19,000 -1,850 Descending Chicago Center
Sat 12:49:05 AM 41.3881 -86.7394 292° West 333 383 17,400 -1,785 Descending Chicago Center
Sat 12:50:06 AM 41.4217 -86.8511 292° West 328 377 15,400 -1,934 Descending Chicago Center
Sat 12:51:06 AM 41.4544 -86.9597 292° West 320 368 13,500 -2,100 Descending Chicago Center
Sat 12:52:06 AM 41.4886 -87.0694 293° West 322 371 11,200 -1,240 Descending Chicago Center
Sat 12:53:07 AM 41.5264 -87.1756 295° West 323 372 11,000 -298 Descending Chicago Center
Sat 12:54:07 AM 41.5828 -87.2639 310° West 318 366 10,600 -900 Descending Chicago Center
Sat 12:55:07 AM 41.6344 -87.3447 311° West 299 344 9,200 -1,500 Descending Chicago Center
Sat 12:56:07 AM 41.6850 -87.4244 310° West 288 331 7,600 -1,091 Descending Chicago Center
Sat 12:57:08 AM 41.7336 -87.5019 310° West 279 321 7,000 -645 Descending Chicago Center
Sat 12:58:08 AM 41.7956 -87.5547 328° Northwest 277 319 6,300 -1,385 Descending Chicago Center
Sat 12:59:05 AM 41.8833 -87.5667 354° North 287 330 4,300 -1,231 Descending Chicago TRACON
Sat 01:00:05 AM 41.9500 -87.6333 323° Northwest 262 302 3,900 -524 Descending Chicago TRACON
Sat 01:01:11 AM 41.9667 -87.7000 289° West 206 237 3,200 -810 Descending Chicago TRACON
Sat 01:02:11 AM 41.9667 -87.7833 270° West 177 204 2,200 -1,000 Descending Chicago TRACON

Login

Don't have an account? Register now (free) for customized features, flight alerts, and more!